createdAt,value
2022-11-25T00:01:52.233Z,100928.17
2022-11-25T00:04:21.460Z,100916.72
2022-11-25T00:06:50.900Z,100926.02
2022-11-25T00:09:20.105Z,100930.92
2022-11-25T00:11:49.480Z,100920.20
2022-11-25T00:14:18.699Z,100922.60
2022-11-25T00:16:48.948Z,100910.33
2022-11-25T00:19:18.775Z,100915.23
2022-11-25T00:21:48.334Z,100911.42
2022-11-25T00:24:17.824Z,100904.52
2022-11-25T00:26:47.356Z,100904.56
2022-11-25T00:29:16.569Z,100896.80
2022-11-25T00:31:45.976Z,100893.33
2022-11-25T00:34:16.210Z,100899.55
2022-11-25T00:36:45.545Z,100900.47
2022-11-25T00:39:17.163Z,100897.15
2022-11-25T00:42:05.180Z,100902.28
2022-11-25T00:44:38.620Z,100900.70
2022-11-25T00:47:20.054Z,100908.00
2022-11-25T00:49:51.358Z,100903.09
2022-11-25T00:52:23.813Z,100896.08
2022-11-25T00:54:53.543Z,100908.45
2022-11-25T00:57:24.867Z,100908.58
2022-11-25T00:59:54.684Z,100914.20
2022-11-25T01:02:24.578Z,100916.84
2022-11-25T01:04:53.988Z,100909.08
2022-11-25T01:07:23.453Z,100917.34
2022-11-25T01:09:52.793Z,100925.33
2022-11-25T01:12:22.118Z,100929.27
2022-11-25T01:14:53.026Z,100929.27
2022-11-25T01:17:22.359Z,100935.59
2022-11-25T01:19:51.854Z,100940.38
2022-11-25T01:22:21.812Z,100944.33
2022-11-25T01:24:51.047Z,100945.05
2022-11-25T01:27:21.640Z,100952.81
2022-11-25T01:29:51.074Z,100959.03
2022-11-25T01:32:20.279Z,100960.00
2022-11-25T01:34:49.605Z,100962.13
2022-11-25T01:37:18.822Z,100961.05
2022-11-25T01:39:48.064Z,100961.42
2022-11-25T01:42:18.802Z,100959.50
2022-11-25T01:44:51.311Z,100971.20
2022-11-25T01:47:24.401Z,100973.97
2022-11-25T01:50:05.025Z,100972.08
2022-11-25T01:52:39.698Z,100974.82
2022-11-25T01:55:11.555Z,100966.95
2022-11-25T01:57:47.362Z,100956.33
2022-11-25T02:00:17.380Z,100946.55
2022-11-25T02:02:47.205Z,100939.99
2022-11-25T02:05:19.267Z,100952.77
2022-11-25T02:07:51.496Z,100942.61
2022-11-25T02:10:26.818Z,100937.36
2022-11-25T02:12:56.454Z,100933.89
2022-11-25T02:15:25.724Z,100935.67
2022-11-25T02:17:55.173Z,100942.70
2022-11-25T02:20:25.285Z,100936.75
2022-11-25T02:23:01.583Z,100963.70
2022-11-25T02:25:35.671Z,100974.32
2022-11-25T02:28:12.574Z,100973.23
2022-11-25T02:30:42.165Z,100985.75
2022-11-25T02:33:11.765Z,100987.64
2022-11-25T02:35:48.990Z,100986.82
2022-11-25T02:38:28.938Z,100981.19
2022-11-25T02:41:16.295Z,100976.05
2022-11-25T02:43:47.549Z,100973.03
2022-11-25T02:46:22.576Z,100955.86
2022-11-25T02:49:08.291Z,100943.92
2022-11-25T02:51:26.009Z,100939.03
2022-11-25T02:53:56.725Z,100956.93
2022-11-25T02:56:29.464Z,100965.27
2022-11-25T02:59:00.155Z,100960.75
2022-11-25T03:01:31.742Z,100959.63
2022-11-25T03:04:01.227Z,100963.90
2022-11-25T03:06:31.477Z,100968.81
2022-11-25T03:09:00.765Z,100975.26
2022-11-25T03:11:31.807Z,100975.02
2022-11-25T03:14:01.393Z,100986.36
2022-11-25T03:16:30.735Z,100989.96
2022-11-25T03:19:00.028Z,100984.22
2022-11-25T03:21:29.266Z,100996.18
2022-11-25T03:23:58.847Z,100996.30
2022-11-25T03:26:28.194Z,100988.20
2022-11-25T03:28:58.074Z,100994.01
2022-11-25T03:31:27.517Z,100996.98
2022-11-25T03:33:57.393Z,100998.97
2022-11-25T03:36:26.830Z,101003.59
2022-11-25T03:38:56.162Z,101002.04
2022-11-25T03:41:25.399Z,101009.86
2022-11-25T03:43:54.926Z,101011.03
2022-11-25T03:46:24.815Z,101015.82
2022-11-25T03:48:55.918Z,101023.17
2022-11-25T03:51:25.965Z,101023.06
2022-11-25T03:53:55.889Z,101030.93
2022-11-25T03:56:25.483Z,101028.20
2022-11-25T03:58:54.881Z,101035.38
2022-11-25T04:01:24.576Z,101037.30
2022-11-25T04:03:54.222Z,101041.63
2022-11-25T04:06:24.124Z,101048.74
2022-11-25T04:08:54.283Z,101042.54
2022-11-25T04:11:25.569Z,101043.94
2022-11-25T04:13:55.447Z,101042.38
2022-11-25T04:16:26.402Z,101046.13
2022-11-25T04:18:56.387Z,101053.00
2022-11-25T04:21:25.728Z,101049.18
2022-11-25T04:23:55.253Z,101047.55
2022-11-25T04:26:24.608Z,101053.68
2022-11-25T04:28:53.892Z,101053.33
2022-11-25T04:31:23.536Z,101053.16
2022-11-25T04:33:52.987Z,101064.59
2022-11-25T04:36:23.533Z,101064.49
2022-11-25T04:38:53.512Z,101063.40
2022-11-25T04:41:24.235Z,101077.92
2022-11-25T04:43:53.650Z,101086.39
2022-11-25T04:46:26.390Z,101087.34
2022-11-25T04:48:56.644Z,101093.16
2022-11-25T04:51:26.055Z,101090.64
2022-11-25T04:53:57.076Z,101084.20
2022-11-25T04:56:26.560Z,101093.55
2022-11-25T04:59:14.463Z,101092.88
2022-11-25T05:01:45.550Z,101098.01
2022-11-25T05:04:29.126Z,101099.22
2022-11-25T05:06:58.475Z,101100.31
2022-11-25T05:09:28.015Z,101100.42
2022-11-25T05:12:05.978Z,101100.35
2022-11-25T05:14:36.138Z,101101.66
2022-11-25T05:17:06.745Z,101105.66
2022-11-25T05:19:36.820Z,101108.00
2022-11-25T05:22:06.743Z,101109.84
2022-11-25T05:24:36.652Z,101116.08
2022-11-25T05:27:06.791Z,101114.67
2022-11-25T05:29:36.250Z,101122.31
2022-11-25T05:32:06.477Z,101120.09
2022-11-25T05:34:36.075Z,101123.80
2022-11-25T05:37:07.611Z,101123.91
2022-11-25T05:39:37.745Z,101129.30
2022-11-25T05:42:11.532Z,101130.97
2022-11-25T05:44:41.387Z,101127.25
2022-11-25T05:47:10.849Z,101138.44
2022-11-25T05:49:41.030Z,101135.92
2022-11-25T05:52:10.331Z,101148.08
2022-11-25T05:54:41.263Z,101145.31
2022-11-25T05:57:10.654Z,101155.80
2022-11-25T05:59:44.871Z,101167.31
2022-11-25T06:02:15.905Z,101162.74
2022-11-25T06:04:45.395Z,101169.69
2022-11-25T06:07:14.676Z,101162.49
2022-11-25T06:09:44.179Z,101168.81
2022-11-25T06:12:13.965Z,101167.56
2022-11-25T06:14:44.931Z,101172.63
2022-11-25T06:17:14.235Z,101177.36
2022-11-25T06:19:48.496Z,101175.45
2022-11-25T06:22:17.913Z,101178.67
2022-11-25T06:24:52.942Z,101174.42
2022-11-25T06:27:18.674Z,101178.82
2022-11-25T06:29:48.052Z,101183.21
2022-11-25T06:32:17.468Z,101183.31
2022-11-25T06:35:00.361Z,101188.09
2022-11-25T06:37:37.666Z,101190.77
2022-11-25T06:40:09.162Z,101193.18
2022-11-25T06:42:39.350Z,101192.69
2022-11-25T06:45:09.609Z,101192.53
2022-11-25T06:47:39.088Z,101193.09
2022-11-25T06:50:08.950Z,101201.26
2022-11-25T06:52:38.825Z,101211.28
2022-11-25T06:55:08.650Z,101209.06
2022-11-25T06:57:37.948Z,101216.72
2022-11-25T07:00:08.428Z,101223.19
2022-11-25T07:02:41.915Z,101227.21
2022-11-25T07:05:09.050Z,101227.70
2022-11-25T07:07:38.511Z,101230.78
2022-11-25T07:10:08.969Z,101235.11
2022-11-25T07:12:38.231Z,101238.38
2022-11-25T07:15:08.394Z,101241.69
2022-11-25T07:17:37.845Z,101241.62
2022-11-25T07:20:08.591Z,101249.48
2022-11-25T07:22:37.833Z,101253.30
2022-11-25T07:25:09.459Z,101253.97
2022-11-25T07:27:38.849Z,101268.06
2022-11-25T07:32:40.032Z,101265.25
2022-11-25T07:35:09.780Z,101274.52
2022-11-25T07:37:39.227Z,101279.48
2022-11-25T07:40:09.493Z,101280.99
2022-11-25T07:42:38.966Z,101288.39
2022-11-25T07:45:10.543Z,101293.33
2022-11-25T07:47:41.473Z,101294.08
2022-11-25T07:50:11.038Z,101300.63
2022-11-25T07:52:41.180Z,101301.19
2022-11-25T07:55:10.884Z,101304.72
2022-11-25T07:57:40.213Z,101312.78
2022-11-25T08:00:10.681Z,101318.19
2022-11-25T08:02:42.706Z,101325.13
2022-11-25T08:05:12.222Z,101330.47
2022-11-25T08:07:41.513Z,101336.06
2022-11-25T08:10:11.630Z,101342.13
2022-11-25T08:12:40.876Z,101343.70
2022-11-25T08:15:10.810Z,101346.98
2022-11-25T08:17:40.009Z,101348.95
2022-11-25T08:20:10.203Z,101351.84
2022-11-25T08:22:39.555Z,101359.90
2022-11-25T08:25:09.319Z,101358.59
2022-11-25T08:27:38.615Z,101360.43
2022-11-25T08:30:08.915Z,101355.19
2022-11-25T08:32:39.346Z,101353.59
2022-11-25T08:35:09.246Z,101358.01
2022-11-25T08:37:38.520Z,101360.53
2022-11-25T08:40:08.974Z,101359.48
2022-11-25T08:42:39.504Z,101361.55
2022-11-25T08:45:09.882Z,101373.31
2022-11-25T08:47:39.178Z,101375.70
2022-11-25T08:50:10.789Z,101378.72
2022-11-25T08:52:40.204Z,101387.66
2022-11-25T08:55:09.815Z,101381.83
2022-11-25T08:57:39.284Z,101390.80
2022-11-25T09:00:09.806Z,101391.23
2022-11-25T09:02:39.063Z,101390.75
2022-11-25T09:05:08.556Z,101399.91
2022-11-25T09:07:38.023Z,101406.06
2022-11-25T09:10:10.368Z,101410.91
2022-11-25T09:12:39.628Z,101405.16
2022-11-25T09:15:10.077Z,101417.97
2022-11-25T09:17:39.372Z,101415.88
2022-11-25T09:20:09.293Z,101419.15
2022-11-25T09:22:38.515Z,101421.89
2022-11-25T09:25:08.700Z,101419.06
2022-11-25T09:27:37.922Z,101423.80
2022-11-25T09:30:08.252Z,101426.49
2022-11-25T09:32:37.499Z,101430.00
2022-11-25T09:35:07.153Z,101434.32
2022-11-25T09:37:36.647Z,101442.02
2022-11-25T09:40:07.972Z,101457.09
2022-11-25T09:43:14.383Z,101457.64
2022-11-25T09:46:19.827Z,101464.36
2022-11-25T09:49:13.927Z,101466.11
2022-11-25T09:52:01.484Z,101474.06
2022-11-25T09:54:43.079Z,101484.20
2022-11-25T09:57:23.104Z,101480.30
2022-11-25T10:00:04.460Z,101483.85
2022-11-25T10:02:41.027Z,101487.73
2022-11-25T10:05:44.136Z,101487.33
2022-11-25T10:08:22.501Z,101494.36
2022-11-25T10:11:03.647Z,101494.39
2022-11-25T10:13:44.938Z,101498.88
2022-11-25T10:16:17.425Z,101504.23
2022-11-25T10:18:49.903Z,101508.47
2022-11-25T10:21:19.128Z,101511.07
2022-11-25T10:23:48.444Z,101512.73
2022-11-25T10:26:20.822Z,101513.72
2022-11-25T10:28:56.657Z,101516.47
2022-11-25T10:31:35.270Z,101501.44
2022-11-25T10:34:07.811Z,101522.72
2022-11-25T10:36:39.343Z,101522.95
2022-11-25T10:39:29.962Z,101530.25
2022-11-25T10:42:07.201Z,101534.60
2022-11-25T10:44:38.945Z,101529.14
2022-11-25T10:47:20.375Z,101524.86
2022-11-25T10:50:09.752Z,101537.73
2022-11-25T10:52:47.853Z,101543.22
2022-11-25T10:55:20.248Z,101543.92
2022-11-25T10:57:49.449Z,101547.48
2022-11-25T11:00:37.804Z,101552.80
2022-11-25T11:03:19.126Z,101559.80
2022-11-25T11:05:51.302Z,101568.33
2022-11-25T11:08:25.977Z,101561.00
2022-11-25T11:11:18.273Z,101568.47
2022-11-25T11:13:48.650Z,101573.03
2022-11-25T11:16:29.671Z,101577.48
2022-11-25T11:18:59.263Z,101576.22
2022-11-25T11:21:34.807Z,101584.95
2022-11-25T11:24:06.921Z,101580.19
2022-11-25T11:26:37.265Z,101580.72
2022-11-25T11:29:13.976Z,101588.26
2022-11-25T11:31:43.134Z,101594.20
2022-11-25T11:34:21.636Z,101595.97
2022-11-25T11:37:17.303Z,101607.31
2022-11-25T11:40:06.444Z,101607.03
2022-11-25T11:42:50.546Z,101608.72
2022-11-25T11:45:48.152Z,101617.55
2022-11-25T11:48:42.211Z,101622.70
2022-11-25T11:51:14.794Z,101630.61
2022-11-25T11:54:01.688Z,101623.78
2022-11-25T11:56:36.904Z,101626.75
2022-11-25T11:59:23.952Z,101632.54
2022-11-25T12:02:08.671Z,101635.52
2022-11-25T12:04:44.200Z,101631.29
2022-11-25T12:07:23.020Z,101634.55
2022-11-25T12:09:55.549Z,101627.92
2022-11-25T12:12:28.151Z,101635.80
2022-11-25T12:14:58.459Z,101640.98
2022-11-25T12:17:30.979Z,101647.81
2022-11-25T12:20:10.371Z,101654.41
2022-11-25T12:22:45.366Z,101660.69
2022-11-25T12:25:29.749Z,101664.14
2022-11-25T12:28:11.334Z,101667.52
2022-11-25T12:31:05.572Z,101665.84
2022-11-25T12:33:52.913Z,101672.75
2022-11-25T12:36:39.217Z,101665.88
2022-11-25T12:39:36.639Z,101673.22
2022-11-25T12:42:09.231Z,101675.38
2022-11-25T12:44:51.639Z,101680.31
2022-11-25T12:47:21.855Z,101682.13
2022-11-25T12:49:53.205Z,101680.20
2022-11-25T12:52:34.545Z,101688.38
2022-11-25T12:55:19.319Z,101694.62
2022-11-25T12:57:51.933Z,101702.53
2022-11-25T13:00:42.484Z,101700.90
2022-11-25T13:03:15.684Z,101704.30
2022-11-25T13:06:12.647Z,101706.92
2022-11-25T13:08:48.106Z,101706.80
2022-11-25T13:11:36.038Z,101713.47
2022-11-25T13:14:18.012Z,101727.02
2022-11-25T13:16:49.678Z,101723.64
2022-11-25T13:19:20.155Z,101724.56
2022-11-25T13:22:06.469Z,101723.09
2022-11-25T13:24:43.269Z,101729.66
2022-11-25T13:27:36.077Z,101729.72
2022-11-25T13:30:07.457Z,101731.98
2022-11-25T13:32:40.655Z,101735.69
2022-11-25T13:35:33.299Z,101738.05
2022-11-25T13:38:04.501Z,101740.48
2022-11-25T13:40:37.462Z,101739.55
2022-11-25T13:43:09.081Z,101745.34
2022-11-25T13:45:40.609Z,101750.26
2022-11-25T13:48:22.038Z,101749.84
2022-11-25T13:51:10.833Z,101759.86
2022-11-25T13:53:29.704Z,101761.08
2022-11-25T13:56:23.504Z,101762.79
2022-11-25T13:59:13.764Z,101769.44
2022-11-25T14:01:49.119Z,101762.13
2022-11-25T14:04:21.811Z,101766.74
2022-11-25T14:06:56.359Z,101767.19
2022-11-25T14:09:37.873Z,101776.13
2022-11-25T14:12:36.285Z,101785.13
2022-11-25T14:15:30.043Z,101797.77
2022-11-25T14:18:17.795Z,101799.84
2022-11-25T14:20:52.772Z,101807.81
2022-11-25T14:23:44.817Z,101805.86
2022-11-25T14:26:42.189Z,101813.48
2022-11-25T14:29:03.667Z,101816.23
2022-11-25T14:31:38.937Z,101820.34
2022-11-25T14:34:23.538Z,101825.83
2022-11-25T14:37:08.115Z,101826.05
2022-11-25T14:39:40.589Z,101832.41
2022-11-25T14:42:13.696Z,101838.00
2022-11-25T14:44:51.199Z,101845.15
2022-11-25T14:47:28.682Z,101855.25
2022-11-25T14:52:36.995Z,101848.41
2022-11-25T14:55:07.711Z,101853.34
2022-11-25T14:57:42.070Z,101860.98
2022-11-25T15:00:15.550Z,101868.20
2022-11-25T15:02:59.404Z,101875.66
2022-11-25T15:05:34.403Z,101872.89
2022-11-25T15:08:06.836Z,101879.31
2022-11-25T15:10:45.702Z,101880.83
2022-11-25T15:13:33.122Z,101893.03
2022-11-25T15:16:14.199Z,101890.11
2022-11-25T15:18:52.025Z,101901.33
2022-11-25T15:21:24.169Z,101902.75
2022-11-25T15:23:53.762Z,101912.52
2022-11-25T15:26:29.093Z,101911.95
2022-11-25T15:29:00.980Z,101920.77
2022-11-25T15:31:33.550Z,101924.27
2022-11-25T15:34:05.128Z,101927.45
2022-11-25T15:36:35.877Z,101929.92
2022-11-25T15:39:20.170Z,101933.61
2022-11-25T15:41:51.268Z,101936.27
2022-11-25T15:44:23.630Z,101942.01
2022-11-25T15:47:15.584Z,101953.55
2022-11-25T15:49:50.338Z,101953.74
2022-11-25T15:52:21.204Z,101960.88
2022-11-25T15:54:52.120Z,101965.77
2022-11-25T15:57:24.136Z,101971.58
2022-11-25T15:59:59.800Z,101972.72
2022-11-25T16:02:45.177Z,101982.67
2022-11-25T16:05:18.132Z,101989.53
2022-11-25T16:07:56.648Z,101996.77
2022-11-25T16:10:34.614Z,102003.13
2022-11-25T16:13:29.449Z,102011.73
2022-11-25T16:16:11.123Z,102010.52
2022-11-25T16:18:58.717Z,102022.03
2022-11-25T16:21:31.569Z,102020.54
2022-11-25T16:24:19.346Z,102029.09
2022-11-25T16:26:54.455Z,102034.81
2022-11-25T16:29:29.601Z,102040.67
2022-11-25T16:32:00.214Z,102045.05
2022-11-25T16:34:30.741Z,102045.81
2022-11-25T16:36:59.963Z,102047.31
2022-11-25T16:39:29.348Z,102062.39
2022-11-25T16:42:01.658Z,102061.75
2022-11-25T16:44:32.032Z,102066.87
2022-11-25T16:47:02.148Z,102075.02
2022-11-25T16:49:32.020Z,102085.49
2022-11-25T16:52:01.359Z,102088.28
2022-11-25T16:54:31.599Z,102083.14
2022-11-25T16:57:01.062Z,102099.76
2022-11-25T16:59:33.782Z,102102.94
2022-11-25T17:02:05.464Z,102108.80
2022-11-25T17:04:34.910Z,102116.08
2022-11-25T17:09:37.570Z,102128.33
2022-11-25T17:12:08.728Z,102132.16
2022-11-25T17:14:38.513Z,102136.69
2022-11-25T17:17:08.939Z,102144.84
2022-11-25T17:19:38.529Z,102148.59
2022-11-25T17:22:26.162Z,102154.17
2022-11-25T17:24:57.742Z,102161.39
2022-11-25T17:27:30.493Z,102164.34
2022-11-25T17:30:02.378Z,102168.70
2022-11-25T17:32:33.124Z,102171.16
2022-11-25T17:35:02.515Z,102182.84
2022-11-25T17:37:32.702Z,102186.25
2022-11-25T17:40:02.074Z,102189.41
2022-11-25T17:42:34.345Z,102191.37
2022-11-25T17:45:03.294Z,102188.21
2022-11-25T17:47:32.910Z,102196.24
2022-11-25T17:50:02.677Z,102199.34
2022-11-25T17:52:31.890Z,102198.19
2022-11-25T17:55:01.445Z,102198.40
2022-11-25T17:57:30.912Z,102205.81
2022-11-25T18:00:00.633Z,102200.02
2022-11-25T18:02:30.224Z,102197.03
2022-11-25T18:04:59.956Z,102203.66
2022-11-25T18:07:29.527Z,102211.84
2022-11-25T18:09:58.838Z,102215.30
2022-11-25T18:12:30.745Z,102224.78
2022-11-25T18:15:01.979Z,102224.31
2022-11-25T18:17:31.442Z,102226.93
2022-11-25T18:20:00.882Z,102224.80
2022-11-25T18:22:30.896Z,102228.02
2022-11-25T18:25:03.162Z,102235.62
2022-11-25T18:27:32.265Z,102240.64
2022-11-25T18:30:02.634Z,102240.41
2022-11-25T18:32:31.864Z,102245.53
2022-11-25T18:35:01.186Z,102251.59
2022-11-25T18:37:30.536Z,102259.94
2022-11-25T18:39:59.886Z,102260.02
2022-11-25T18:42:29.348Z,102261.25
2022-11-25T18:44:58.992Z,102262.93
2022-11-25T18:47:28.429Z,102269.32
2022-11-25T18:49:57.907Z,102269.47
2022-11-25T18:52:27.420Z,102279.53
2022-11-25T18:54:56.722Z,102278.75
2022-11-25T18:57:26.116Z,102274.66
2022-11-25T19:00:17.265Z,102275.66
2022-11-25T19:02:26.581Z,102283.58
2022-11-25T19:04:55.920Z,102292.61
2022-11-25T19:07:25.811Z,102298.16
2022-11-25T19:09:55.414Z,102296.47
2022-11-25T19:12:24.698Z,102298.67
2022-11-25T19:14:55.755Z,102303.30
2022-11-25T19:17:26.095Z,102301.50
2022-11-25T19:19:55.766Z,102306.47
2022-11-25T19:22:25.198Z,102312.70
2022-11-25T19:24:56.110Z,102314.47
2022-11-25T19:27:26.592Z,102314.61
2022-11-25T19:29:56.292Z,102321.67
2022-11-25T19:32:27.873Z,102329.59
2022-11-25T19:35:00.649Z,102334.17
2022-11-25T19:37:31.659Z,102330.52
2022-11-25T19:40:02.896Z,102339.48
2022-11-25T19:42:32.298Z,102342.03
2022-11-25T19:45:03.595Z,102331.52
2022-11-25T19:47:32.839Z,102344.54
2022-11-25T19:50:03.112Z,102347.53
2022-11-25T19:52:35.918Z,102353.19
2022-11-25T19:55:16.948Z,102358.42
2022-11-25T19:57:46.853Z,102363.38
2022-11-25T20:00:17.737Z,102360.10
2022-11-25T20:02:49.202Z,102369.67
2022-11-25T20:05:36.225Z,102373.73
2022-11-25T20:08:06.212Z,102377.52
2022-11-25T20:10:35.489Z,102377.59
2022-11-25T20:13:07.224Z,102386.41
2022-11-25T20:15:37.744Z,102389.56
2022-11-25T20:18:11.586Z,102388.05
2022-11-25T20:20:41.415Z,102386.03
2022-11-25T20:23:28.287Z,102390.34
2022-11-25T20:25:57.652Z,102395.33
2022-11-25T20:28:31.360Z,102395.04
2022-11-25T20:31:00.983Z,102397.41
2022-11-25T20:33:30.326Z,102402.89
2022-11-25T20:36:02.899Z,102406.30
2022-11-25T20:38:31.808Z,102413.36
2022-11-25T20:41:02.047Z,102420.72
2022-11-25T20:43:33.674Z,102416.35
2022-11-25T20:46:04.002Z,102423.69
2022-11-25T20:48:35.325Z,102426.94
2022-11-25T20:51:06.772Z,102426.27
2022-11-25T20:53:36.717Z,102426.52
2022-11-25T20:56:06.625Z,102433.44
2022-11-25T20:58:37.394Z,102441.23
2022-11-25T21:01:07.856Z,102444.44
2022-11-25T21:03:37.606Z,102449.67
2022-11-25T21:06:10.163Z,102451.37
2022-11-25T21:08:39.027Z,102458.30
2022-11-25T21:11:08.223Z,102458.89
2022-11-25T21:13:37.913Z,102455.30
2022-11-25T21:16:07.467Z,102460.37
2022-11-25T21:18:37.088Z,102466.92
2022-11-25T21:21:09.488Z,102466.50
2022-11-25T21:23:39.581Z,102474.95
2022-11-25T21:26:14.460Z,102482.49
2022-11-25T21:28:45.101Z,102487.40
2022-11-25T21:31:22.690Z,102492.09
2022-11-25T21:33:54.206Z,102491.94
2022-11-25T21:36:26.905Z,102493.87
2022-11-25T21:39:05.324Z,102497.14
2022-11-25T21:41:35.538Z,102499.75
2022-11-25T21:44:06.667Z,102504.56
2022-11-25T21:46:36.145Z,102513.20
2022-11-25T21:49:11.360Z,102515.49
2022-11-25T21:51:41.223Z,102520.72
2022-11-25T21:54:11.611Z,102523.28
2022-11-25T21:56:41.129Z,102525.53
2022-11-25T21:59:13.844Z,102527.39
2022-11-25T22:01:43.269Z,102532.38
2022-11-25T22:04:17.767Z,102525.47
2022-11-25T22:06:48.112Z,102531.51
2022-11-25T22:09:17.944Z,102530.20
2022-11-25T22:11:52.993Z,102533.56
2022-11-25T22:14:26.846Z,102532.81
2022-11-25T22:16:57.685Z,102531.51
2022-11-25T22:19:29.053Z,102538.60
2022-11-25T22:22:00.056Z,102540.72
2022-11-25T22:24:30.599Z,102539.80
2022-11-25T22:26:59.937Z,102548.11
2022-11-25T22:29:31.847Z,102545.50
2022-11-25T22:32:01.291Z,102549.00
2022-11-25T22:34:30.829Z,102553.34
2022-11-25T22:37:00.140Z,102553.34
2022-11-25T22:39:29.547Z,102555.03
2022-11-25T22:42:05.097Z,102561.32
2022-11-25T22:44:37.106Z,102563.38
2022-11-25T22:47:07.602Z,102571.72
2022-11-25T22:49:44.368Z,102577.87
2022-11-25T22:52:25.322Z,102577.81
2022-11-25T22:54:54.815Z,102584.34
2022-11-25T22:57:24.175Z,102581.31
2022-11-25T22:59:53.573Z,102580.48
2022-11-25T23:02:28.834Z,102582.98
2022-11-25T23:04:58.378Z,102588.38
2022-11-25T23:07:27.711Z,102590.94
2022-11-25T23:09:57.175Z,102596.99
2022-11-25T23:12:26.410Z,102591.48
2022-11-25T23:14:55.671Z,102606.36
2022-11-25T23:17:26.830Z,102606.36
2022-11-25T23:19:56.223Z,102600.63
2022-11-25T23:22:25.451Z,102606.67
2022-11-25T23:24:54.806Z,102609.23
2022-11-25T23:27:24.070Z,102617.56
2022-11-25T23:29:53.312Z,102620.29
2022-11-25T23:32:22.559Z,102621.55
2022-11-25T23:34:52.168Z,102621.16
2022-11-25T23:37:21.466Z,102625.46
2022-11-25T23:39:52.902Z,102629.87
2022-11-25T23:42:22.145Z,102634.22
2022-11-25T23:44:51.374Z,102626.98
2022-11-25T23:47:23.127Z,102635.27
2022-11-25T23:49:53.527Z,102635.66
2022-11-25T23:52:27.210Z,102633.63
2022-11-25T23:54:56.832Z,102626.66
2022-11-25T23:57:29.304Z,102621.49
2022-11-25T23:59:58.693Z,102620.23
